createdAt,value
2022-11-20T00:00:09.134Z,90.06
2022-11-20T00:00:19.196Z,90.06
2022-11-20T00:00:29.339Z,90.06
2022-11-20T00:00:39.414Z,89.95
2022-11-20T00:00:49.381Z,89.95
2022-11-20T00:00:59.466Z,89.95
2022-11-20T00:01:09.416Z,89.95
2022-11-20T00:01:19.514Z,89.95
2022-11-20T00:01:29.606Z,89.85
2022-11-20T00:01:39.707Z,89.85
2022-11-20T00:01:49.832Z,89.85
2022-11-20T00:01:59.915Z,89.85
2022-11-20T00:02:10.100Z,89.75
2022-11-20T00:02:20.053Z,89.75
2022-11-20T00:02:30.001Z,89.75
2022-11-20T00:02:40.075Z,89.75
2022-11-20T00:02:50.216Z,89.75
2022-11-20T00:03:00.283Z,89.64
2022-11-20T00:03:10.393Z,89.64
2022-11-20T00:03:20.463Z,89.64
2022-11-20T00:03:30.574Z,89.64
2022-11-20T00:03:40.533Z,89.64
2022-11-20T00:03:50.623Z,89.64
2022-11-20T00:04:00.741Z,89.64
2022-11-20T00:04:10.814Z,89.54
2022-11-20T00:04:20.921Z,89.54
2022-11-20T00:04:30.990Z,89.54
2022-11-20T00:04:41.077Z,89.54
2022-11-20T00:04:51.152Z,89.54
2022-11-20T00:05:01.272Z,89.64
2022-11-20T00:05:11.353Z,89.54
2022-11-20T00:05:21.440Z,89.54
2022-11-20T00:05:31.523Z,89.54
2022-11-20T00:05:41.624Z,89.54
2022-11-20T00:05:51.702Z,89.54
2022-11-20T00:06:01.794Z,89.54
2022-11-20T00:06:11.866Z,89.43
2022-11-20T00:06:21.971Z,89.43
2022-11-20T00:06:32.035Z,89.43
2022-11-20T00:06:42.132Z,89.43
2022-11-20T00:06:52.220Z,89.32
2022-11-20T00:07:02.355Z,89.32
2022-11-20T00:07:12.341Z,89.32
2022-11-20T00:07:22.462Z,89.32
2022-11-20T00:07:32.502Z,89.32
2022-11-20T00:07:42.513Z,89.32
2022-11-20T00:07:52.627Z,89.22
2022-11-20T00:08:02.630Z,89.22
2022-11-20T00:08:12.713Z,89.22
2022-11-20T00:08:22.796Z,89.22
2022-11-20T00:08:32.864Z,89.22
2022-11-20T00:08:42.978Z,89.22
2022-11-20T00:08:53.061Z,89.22
2022-11-20T00:09:03.164Z,89.22
2022-11-20T00:09:13.233Z,89.22
2022-11-20T00:09:23.569Z,89.22
2022-11-20T00:09:33.493Z,89.22
2022-11-20T00:09:43.554Z,89.22
2022-11-20T00:09:53.642Z,89.22
2022-11-20T00:10:03.725Z,89.22
2022-11-20T00:10:13.823Z,89.22
2022-11-20T00:10:23.872Z,89.22
2022-11-20T00:10:33.952Z,89.22
2022-11-20T00:10:44.010Z,89.22
2022-11-20T00:10:54.070Z,89.22
2022-11-20T00:11:04.142Z,89.22
2022-11-20T00:11:16.009Z,89.22
2022-11-20T00:11:24.244Z,89.22
2022-11-20T00:11:34.361Z,89.22
2022-11-20T00:11:44.431Z,89.22
2022-11-20T00:11:54.483Z,89.12
2022-11-20T00:12:04.579Z,89.12
2022-11-20T00:12:14.677Z,89.12
2022-11-20T00:12:24.722Z,89.01
2022-11-20T00:12:34.814Z,89.01
2022-11-20T00:12:44.863Z,89.01
2022-11-20T00:12:54.967Z,89.01
2022-11-20T00:13:05.033Z,89.01
2022-11-20T00:13:15.144Z,89.01
2022-11-20T00:13:25.202Z,89.01
2022-11-20T00:13:35.303Z,89.01
2022-11-20T00:13:45.376Z,88.91
2022-11-20T00:13:55.461Z,88.91
2022-11-20T00:14:05.541Z,88.91
2022-11-20T00:14:15.641Z,88.91
2022-11-20T00:14:25.721Z,88.91
2022-11-20T00:14:35.793Z,88.91
2022-11-20T00:14:45.864Z,88.91
2022-11-20T00:14:55.903Z,88.91
2022-11-20T00:15:06.024Z,88.91
2022-11-20T00:15:16.090Z,88.91
2022-11-20T00:15:26.151Z,88.91
2022-11-20T00:15:36.250Z,88.91
2022-11-20T00:15:46.299Z,88.91
2022-11-20T00:15:56.361Z,88.91
2022-11-20T00:16:06.449Z,88.91
2022-11-20T00:16:16.544Z,88.91
2022-11-20T00:16:26.593Z,88.91
2022-11-20T00:16:36.685Z,88.91
2022-11-20T00:16:46.772Z,88.81
2022-11-20T00:16:56.862Z,88.81
2022-11-20T00:17:06.967Z,88.81
2022-11-20T00:17:17.081Z,88.91
2022-11-20T00:17:27.151Z,88.81
2022-11-20T00:17:37.289Z,88.81
2022-11-20T00:17:47.371Z,88.81
2022-11-20T00:17:57.451Z,88.81
2022-11-20T00:18:07.512Z,88.81
2022-11-20T00:18:17.590Z,88.81
2022-11-20T00:18:27.651Z,88.70
2022-11-20T00:18:37.711Z,88.70
2022-11-20T00:18:47.794Z,88.70
2022-11-20T00:18:57.860Z,88.70
2022-11-20T00:19:07.971Z,88.70
2022-11-20T00:19:18.638Z,88.70
2022-11-20T00:19:28.191Z,88.60
2022-11-20T00:19:38.273Z,88.60
2022-11-20T00:19:48.330Z,88.60
2022-11-20T00:19:58.435Z,88.60
2022-11-20T00:20:08.501Z,88.60
2022-11-20T00:20:18.594Z,88.60
2022-11-20T00:20:28.643Z,88.60
2022-11-20T00:20:38.749Z,88.60
2022-11-20T00:20:48.800Z,88.60
2022-11-20T00:20:58.872Z,88.60
2022-11-20T00:21:08.960Z,88.60
2022-11-20T00:21:19.021Z,88.49
2022-11-20T00:21:29.127Z,88.49
2022-11-20T00:21:39.200Z,88.49
2022-11-20T00:21:49.285Z,88.49
2022-11-20T00:21:59.361Z,88.49
2022-11-20T00:22:09.439Z,88.49
2022-11-20T00:22:19.500Z,88.49
2022-11-20T00:22:29.571Z,88.49
2022-11-20T00:22:39.630Z,88.49
2022-11-20T00:22:49.731Z,88.49
2022-11-20T00:22:59.842Z,88.49
2022-11-20T00:23:09.887Z,88.39
2022-11-20T00:23:19.971Z,88.39
2022-11-20T00:23:30.036Z,88.39
2022-11-20T00:23:40.119Z,88.39
2022-11-20T00:23:50.180Z,88.39
2022-11-20T00:24:00.261Z,88.39
2022-11-20T00:24:10.369Z,88.39
2022-11-20T00:24:20.477Z,88.39
2022-11-20T00:24:30.560Z,88.39
2022-11-20T00:24:43.150Z,88.39
2022-11-20T00:24:50.680Z,88.39
2022-11-20T00:25:00.759Z,88.39
2022-11-20T00:25:10.841Z,88.39
2022-11-20T00:25:20.907Z,88.39
2022-11-20T00:25:30.999Z,88.29
2022-11-20T00:25:41.069Z,88.29
2022-11-20T00:25:51.171Z,88.29
2022-11-20T00:26:01.218Z,88.29
2022-11-20T00:26:11.311Z,88.29
2022-11-20T00:26:21.406Z,88.29
2022-11-20T00:26:31.479Z,88.29
2022-11-20T00:26:41.551Z,88.29
2022-11-20T00:26:51.678Z,88.29
2022-11-20T00:27:01.640Z,88.29
2022-11-20T00:27:11.710Z,88.29
2022-11-20T00:27:21.787Z,88.29
2022-11-20T00:27:31.869Z,88.29
2022-11-20T00:27:41.949Z,88.18
2022-11-20T00:27:52.029Z,88.18
2022-11-20T00:28:02.079Z,88.18
2022-11-20T00:28:12.157Z,88.18
2022-11-20T00:28:22.217Z,88.18
2022-11-20T00:28:32.280Z,88.18
2022-11-20T00:28:42.338Z,88.18
2022-11-20T00:28:52.400Z,88.08
2022-11-20T00:29:02.484Z,88.08
2022-11-20T00:29:12.559Z,88.08
2022-11-20T00:29:22.869Z,88.08
2022-11-20T00:29:32.589Z,88.08
2022-11-20T00:29:42.668Z,88.08
2022-11-20T00:29:52.728Z,88.08
2022-11-20T00:30:02.849Z,88.08
2022-11-20T00:30:14.983Z,88.08
2022-11-20T00:30:23.008Z,88.08
2022-11-20T00:30:33.076Z,88.08
2022-11-20T00:30:43.175Z,88.08
2022-11-20T00:30:53.238Z,88.08
2022-11-20T00:31:03.308Z,88.08
2022-11-20T00:31:13.379Z,88.08
2022-11-20T00:31:23.477Z,88.08
2022-11-20T00:31:33.530Z,88.08
2022-11-20T00:31:43.607Z,88.08
2022-11-20T00:31:53.678Z,87.97
2022-11-20T00:32:03.760Z,87.97
2022-11-20T00:32:13.829Z,87.97
2022-11-20T00:32:23.939Z,87.97
2022-11-20T00:32:34.000Z,87.97
2022-11-20T00:32:44.088Z,87.97
2022-11-20T00:32:54.188Z,87.97
2022-11-20T00:33:04.247Z,87.97
2022-11-20T00:33:14.331Z,87.97
2022-11-20T00:33:24.399Z,87.97
2022-11-20T00:33:34.471Z,87.97
2022-11-20T00:33:44.540Z,87.97
2022-11-20T00:33:54.617Z,87.97
2022-11-20T00:34:04.709Z,87.97
2022-11-20T00:34:14.771Z,87.97
2022-11-20T00:34:24.838Z,87.97
2022-11-20T00:34:34.909Z,87.97
2022-11-20T00:34:45.008Z,87.97
2022-11-20T00:34:55.079Z,87.97
2022-11-20T00:35:05.138Z,87.97
2022-11-20T00:35:15.230Z,87.97
2022-11-20T00:35:25.289Z,87.97
2022-11-20T00:35:35.376Z,87.97
2022-11-20T00:35:45.445Z,87.97
2022-11-20T00:35:55.520Z,87.97
2022-11-20T00:36:05.606Z,87.97
2022-11-20T00:36:15.678Z,87.87
2022-11-20T00:36:25.749Z,87.87
2022-11-20T00:36:35.854Z,87.87
2022-11-20T00:36:45.947Z,87.87
2022-11-20T00:36:56.009Z,87.87
2022-11-20T00:37:06.095Z,87.87
2022-11-20T00:37:16.176Z,87.87
2022-11-20T00:37:26.247Z,87.87
2022-11-20T00:37:36.326Z,87.87
2022-11-20T00:37:46.407Z,87.87
2022-11-20T00:37:56.470Z,87.87
2022-11-20T00:38:06.687Z,87.97
2022-11-20T00:38:16.635Z,87.97
2022-11-20T00:38:26.707Z,87.97
2022-11-20T00:38:36.810Z,87.97
2022-11-20T00:38:46.878Z,87.97
2022-11-20T00:38:56.998Z,87.97
2022-11-20T00:39:07.106Z,87.97
2022-11-20T00:39:17.195Z,87.97
2022-11-20T00:39:27.246Z,87.97
2022-11-20T00:39:37.366Z,87.87
2022-11-20T00:39:47.451Z,87.87
2022-11-20T00:39:57.528Z,87.87
2022-11-20T00:40:07.636Z,87.87
2022-11-20T00:40:17.729Z,87.87
2022-11-20T00:40:27.786Z,87.87
2022-11-20T00:40:37.845Z,87.76
2022-11-20T00:40:52.237Z,87.83
2022-11-20T00:40:58.856Z,87.76
2022-11-20T00:41:08.936Z,87.76
2022-11-20T00:41:18.977Z,87.76
2022-11-20T00:41:29.120Z,87.76
2022-11-20T00:41:39.183Z,87.66
2022-11-20T00:41:49.246Z,87.66
2022-11-20T00:41:59.336Z,87.66
2022-11-20T00:42:09.409Z,87.66
2022-11-20T00:42:19.516Z,87.62
2022-11-20T00:42:29.597Z,87.66
2022-11-20T00:42:39.665Z,87.62
2022-11-20T00:42:49.736Z,87.62
2022-11-20T00:42:59.808Z,87.66
2022-11-20T00:43:09.885Z,87.66
2022-11-20T00:43:19.916Z,87.66
2022-11-20T00:43:29.973Z,87.66
2022-11-20T00:43:40.025Z,87.66
2022-11-20T00:43:50.055Z,87.66
2022-11-20T00:44:00.160Z,87.62
2022-11-20T00:44:10.165Z,87.66
2022-11-20T00:44:20.209Z,87.62
2022-11-20T00:44:30.276Z,87.66
2022-11-20T00:44:40.335Z,87.66
2022-11-20T00:44:50.406Z,87.62
2022-11-20T00:45:00.474Z,87.62
2022-11-20T00:45:10.535Z,87.62
2022-11-20T00:45:20.592Z,87.66
2022-11-20T00:45:30.666Z,87.66
2022-11-20T00:45:40.705Z,87.52
2022-11-20T00:45:50.833Z,87.62
2022-11-20T00:46:00.890Z,87.62
2022-11-20T00:46:10.966Z,87.52
2022-11-20T00:46:21.035Z,87.52
2022-11-20T00:46:31.113Z,87.52
2022-11-20T00:46:41.175Z,87.52
2022-11-20T00:46:51.265Z,87.55
2022-11-20T00:47:01.335Z,87.52
2022-11-20T00:47:11.427Z,87.52
2022-11-20T00:47:21.495Z,87.62
2022-11-20T00:47:31.563Z,87.52
2022-11-20T00:47:41.636Z,87.62
2022-11-20T00:47:51.705Z,87.62
2022-11-20T00:48:01.806Z,87.62
2022-11-20T00:48:11.886Z,87.52
2022-11-20T00:48:21.947Z,87.62
2022-11-20T00:48:32.019Z,87.62
2022-11-20T00:48:42.109Z,87.62
2022-11-20T00:48:52.186Z,87.62
2022-11-20T00:49:02.245Z,87.62
2022-11-20T00:49:12.325Z,87.62
2022-11-20T00:49:22.752Z,87.62
2022-11-20T00:49:32.495Z,87.62
2022-11-20T00:49:42.563Z,87.52
2022-11-20T00:49:52.624Z,87.52
2022-11-20T00:50:02.760Z,87.62
2022-11-20T00:50:12.826Z,87.62
2022-11-20T00:50:22.894Z,87.52
2022-11-20T00:50:32.954Z,87.62
2022-11-20T00:50:43.027Z,87.62
2022-11-20T00:50:53.104Z,87.62
2022-11-20T00:51:03.180Z,87.52
2022-11-20T00:51:13.252Z,87.52
2022-11-20T00:51:23.328Z,87.52
2022-11-20T00:51:33.390Z,87.52
2022-11-20T00:51:43.465Z,87.52
2022-11-20T00:51:53.525Z,87.52
2022-11-20T00:52:03.593Z,87.52
2022-11-20T00:52:13.674Z,87.52
2022-11-20T00:52:23.745Z,87.52
2022-11-20T00:52:33.819Z,87.52
2022-11-20T00:52:43.904Z,87.52
2022-11-20T00:52:53.976Z,87.52
2022-11-20T00:53:04.062Z,87.52
2022-11-20T00:53:14.125Z,87.41
2022-11-20T00:53:24.185Z,87.41
2022-11-20T00:53:34.267Z,87.41
2022-11-20T00:53:44.343Z,87.41
2022-11-20T00:53:54.412Z,87.41
2022-11-20T00:54:04.488Z,87.41
2022-11-20T00:54:14.554Z,87.41
2022-11-20T00:54:24.633Z,87.41
2022-11-20T00:54:34.704Z,87.41
2022-11-20T00:54:44.774Z,87.41
2022-11-20T00:54:54.824Z,87.41
2022-11-20T00:55:04.914Z,87.41
2022-11-20T00:55:14.976Z,87.41
2022-11-20T00:55:25.065Z,87.41
2022-11-20T00:55:35.114Z,87.41
2022-11-20T00:55:45.183Z,87.41
2022-11-20T00:55:55.255Z,87.41
2022-11-20T00:56:05.334Z,87.41
2022-11-20T00:56:15.396Z,87.41
2022-11-20T00:56:25.457Z,87.30
2022-11-20T00:56:35.516Z,87.30
2022-11-20T00:56:45.584Z,87.30
2022-11-20T00:56:55.672Z,87.30
2022-11-20T00:57:05.731Z,87.30
2022-11-20T00:57:15.805Z,87.30
2022-11-20T00:57:25.863Z,87.41
2022-11-20T00:57:35.947Z,87.41
2022-11-20T00:57:46.004Z,87.41
2022-11-20T00:57:56.095Z,87.30
2022-11-20T00:58:10.236Z,87.30
2022-11-20T00:58:17.901Z,87.30
2022-11-20T00:58:27.183Z,87.30
2022-11-20T00:58:37.255Z,87.30
2022-11-20T00:58:47.336Z,87.30
2022-11-20T00:58:57.425Z,87.30
2022-11-20T00:59:07.501Z,87.30
2022-11-20T00:59:17.634Z,87.20
2022-11-20T00:59:27.704Z,87.20
2022-11-20T00:59:37.761Z,87.20
2022-11-20T00:59:47.823Z,87.20
2022-11-20T00:59:57.883Z,87.30
2022-11-20T01:00:07.926Z,87.30
2022-11-20T01:00:17.982Z,87.30
2022-11-20T01:00:28.064Z,87.30
2022-11-20T01:00:38.209Z,87.30
2022-11-20T01:00:48.189Z,87.30
2022-11-20T01:00:58.288Z,87.30
2022-11-20T01:01:08.471Z,87.30
2022-11-20T01:01:18.430Z,87.30
2022-11-20T01:01:28.568Z,87.30
2022-11-20T01:01:38.679Z,87.30
2022-11-20T01:01:48.641Z,87.30
2022-11-20T01:01:58.683Z,87.30
2022-11-20T01:02:08.762Z,87.30
2022-11-20T01:02:18.826Z,87.30
2022-11-20T01:02:28.912Z,87.30
2022-11-20T01:02:38.977Z,87.30
2022-11-20T01:02:49.053Z,87.30
2022-11-20T01:02:59.133Z,87.30
2022-11-20T01:03:09.193Z,87.30
2022-11-20T01:03:24.147Z,87.30
2022-11-20T01:03:30.222Z,87.30
2022-11-20T01:03:40.278Z,87.30
2022-11-20T01:03:50.359Z,87.30
2022-11-20T01:04:00.447Z,87.20
2022-11-20T01:04:10.553Z,87.20
2022-11-20T01:04:20.644Z,87.30
2022-11-20T01:04:30.711Z,87.30
2022-11-20T01:04:40.782Z,87.30
2022-11-20T01:04:50.849Z,87.30
2022-11-20T01:05:00.930Z,87.30
2022-11-20T01:05:11.001Z,87.30
2022-11-20T01:05:21.062Z,87.30
2022-11-20T01:05:31.140Z,87.30
2022-11-20T01:05:41.201Z,87.30
2022-11-20T01:05:51.282Z,87.30
2022-11-20T01:06:01.358Z,87.30
2022-11-20T01:06:11.440Z,87.30
2022-11-20T01:06:21.502Z,87.20
2022-11-20T01:06:31.573Z,87.20
2022-11-20T01:06:41.644Z,87.20
2022-11-20T01:06:51.741Z,87.20
2022-11-20T01:07:01.886Z,87.20
2022-11-20T01:07:11.824Z,87.20
2022-11-20T01:07:21.975Z,87.20
2022-11-20T01:07:32.184Z,87.20
2022-11-20T01:07:42.133Z,87.20
2022-11-20T01:07:52.183Z,87.20
2022-11-20T01:08:02.271Z,87.20
2022-11-20T01:08:12.345Z,87.10
2022-11-20T01:08:22.499Z,87.10
2022-11-20T01:08:32.564Z,87.10
2022-11-20T01:08:42.672Z,87.10
2022-11-20T01:08:52.730Z,87.10
2022-11-20T01:09:02.840Z,87.10
2022-11-20T01:09:12.987Z,87.10
2022-11-20T01:09:23.405Z,87.10
2022-11-20T01:09:33.163Z,87.10
2022-11-20T01:09:43.258Z,87.10
2022-11-20T01:09:53.321Z,87.10
2022-11-20T01:10:03.420Z,87.10
2022-11-20T01:10:13.491Z,87.10
2022-11-20T01:10:23.563Z,87.10
2022-11-20T01:10:33.661Z,87.10
2022-11-20T01:10:43.740Z,87.10
2022-11-20T01:10:53.843Z,87.10
2022-11-20T01:11:03.929Z,87.10
2022-11-20T01:11:13.998Z,87.10
2022-11-20T01:11:24.071Z,87.10
2022-11-20T01:11:34.139Z,87.10
2022-11-20T01:11:44.220Z,87.10
2022-11-20T01:11:54.288Z,87.10
2022-11-20T01:12:04.419Z,87.10
2022-11-20T01:12:14.499Z,87.10
2022-11-20T01:12:24.560Z,87.10
2022-11-20T01:12:34.640Z,87.10
2022-11-20T01:12:44.710Z,87.10
2022-11-20T01:12:54.771Z,87.10
2022-11-20T01:13:04.837Z,87.10
2022-11-20T01:13:14.900Z,87.10
2022-11-20T01:13:25.873Z,87.10
2022-11-20T01:13:34.981Z,87.10
2022-11-20T01:13:45.081Z,87.10
2022-11-20T01:13:55.171Z,87.10
2022-11-20T01:14:05.243Z,87.10
2022-11-20T01:14:15.353Z,87.10
2022-11-20T01:14:25.420Z,87.10
2022-11-20T01:14:35.508Z,87.10
2022-11-20T01:14:45.603Z,87.10
2022-11-20T01:14:55.691Z,87.10
2022-11-20T01:15:05.781Z,87.10
2022-11-20T01:15:15.841Z,87.10
2022-11-20T01:15:25.962Z,87.10
2022-11-20T01:15:36.020Z,86.99
2022-11-20T01:15:46.089Z,86.99
2022-11-20T01:15:56.160Z,86.99
2022-11-20T01:16:06.250Z,86.99
2022-11-20T01:16:16.340Z,86.99
2022-11-20T01:16:26.388Z,86.99
2022-11-20T01:16:36.470Z,86.99
2022-11-20T01:16:46.539Z,86.99
2022-11-20T01:16:56.600Z,86.99
2022-11-20T01:17:06.668Z,86.89
2022-11-20T01:17:16.742Z,86.89
2022-11-20T01:17:26.819Z,86.99
2022-11-20T01:17:36.893Z,86.89
2022-11-20T01:17:46.959Z,86.89
2022-11-20T01:17:57.031Z,86.89
2022-11-20T01:18:07.109Z,86.89
2022-11-20T01:18:17.179Z,86.89
2022-11-20T01:18:27.246Z,86.89
2022-11-20T01:18:37.310Z,86.89
2022-11-20T01:18:47.381Z,86.89
2022-11-20T01:18:57.459Z,86.89
2022-11-20T01:19:07.539Z,86.89
2022-11-20T01:19:18.355Z,86.89
2022-11-20T01:19:27.903Z,86.89
2022-11-20T01:19:37.960Z,86.89
2022-11-20T01:19:48.039Z,86.89
2022-11-20T01:19:58.130Z,86.79
2022-11-20T01:20:08.220Z,86.89
2022-11-20T01:20:18.353Z,86.89
2022-11-20T01:20:28.417Z,86.89
2022-11-20T01:20:38.501Z,86.89
2022-11-20T01:20:48.580Z,86.89
2022-11-20T01:20:58.639Z,86.79
2022-11-20T01:21:08.718Z,86.79
2022-11-20T01:21:18.788Z,86.79
2022-11-20T01:21:28.861Z,86.79
2022-11-20T01:21:38.937Z,86.79
2022-11-20T01:21:49.019Z,86.68
2022-11-20T01:21:59.099Z,86.68
2022-11-20T01:22:09.178Z,86.68
2022-11-20T01:22:19.238Z,86.68
2022-11-20T01:22:29.310Z,86.68
2022-11-20T01:22:39.367Z,86.68
2022-11-20T01:22:49.440Z,86.68
2022-11-20T01:22:59.500Z,86.68
2022-11-20T01:23:09.581Z,86.68
2022-11-20T01:23:19.700Z,86.79
2022-11-20T01:23:29.758Z,86.79
2022-11-20T01:23:39.828Z,86.79
2022-11-20T01:23:49.897Z,86.79
2022-11-20T01:23:59.879Z,86.79
2022-11-20T01:24:09.948Z,86.79
2022-11-20T01:24:20.086Z,86.79
2022-11-20T01:24:30.179Z,86.79
2022-11-20T01:24:40.275Z,86.79
2022-11-20T01:24:50.361Z,86.79
2022-11-20T01:25:00.447Z,86.79
2022-11-20T01:25:10.520Z,86.89
2022-11-20T01:25:20.589Z,86.79
2022-11-20T01:25:30.661Z,86.79
2022-11-20T01:25:40.729Z,86.79
2022-11-20T01:25:50.850Z,86.79
2022-11-20T01:26:00.928Z,86.79
2022-11-20T01:26:11.017Z,86.79
2022-11-20T01:26:21.077Z,86.79
2022-11-20T01:26:31.156Z,86.79
2022-11-20T01:26:41.238Z,86.68
2022-11-20T01:26:51.322Z,86.68
2022-11-20T01:27:01.399Z,86.68
2022-11-20T01:27:11.488Z,86.68
2022-11-20T01:27:21.566Z,86.68
2022-11-20T01:27:31.638Z,86.79
2022-11-20T01:27:41.707Z,86.79
2022-11-20T01:27:51.767Z,86.79
2022-11-20T01:28:01.837Z,86.79
2022-11-20T01:28:11.915Z,86.79
2022-11-20T01:28:22.018Z,86.79
2022-11-20T01:28:32.077Z,86.68
2022-11-20T01:28:42.167Z,86.79
2022-11-20T01:28:52.251Z,86.79
2022-11-20T01:29:02.317Z,86.79
2022-11-20T01:29:12.409Z,86.79
2022-11-20T01:29:22.972Z,86.68
2022-11-20T01:29:32.586Z,86.68
2022-11-20T01:29:42.676Z,86.68
2022-11-20T01:29:55.757Z,86.68
2022-11-20T01:30:03.739Z,86.68
2022-11-20T01:30:13.827Z,86.68
2022-11-20T01:30:23.902Z,86.68
2022-11-20T01:30:33.964Z,86.68
2022-11-20T01:30:44.037Z,86.68
2022-11-20T01:30:54.107Z,86.68
2022-11-20T01:31:04.186Z,86.68
2022-11-20T01:31:14.266Z,86.68
2022-11-20T01:31:24.338Z,86.68
2022-11-20T01:31:34.422Z,86.68
2022-11-20T01:31:44.496Z,86.68
2022-11-20T01:31:54.566Z,86.68
2022-11-20T01:32:04.645Z,86.68
2022-11-20T01:32:14.729Z,86.68
2022-11-20T01:32:24.794Z,86.68
2022-11-20T01:32:34.885Z,86.68
2022-11-20T01:32:44.954Z,86.68
2022-11-20T01:32:55.027Z,86.68
2022-11-20T01:33:05.098Z,86.68
2022-11-20T01:33:15.187Z,86.68
2022-11-20T01:33:25.269Z,86.68
2022-11-20T01:33:35.355Z,86.68
2022-11-20T01:33:45.426Z,86.68
2022-11-20T01:33:55.496Z,86.68
2022-11-20T01:34:05.559Z,86.68
2022-11-20T01:34:15.719Z,86.79
2022-11-20T01:34:25.774Z,86.68
2022-11-20T01:34:35.846Z,86.68
2022-11-20T01:34:45.915Z,86.68
2022-11-20T01:34:55.986Z,86.68
2022-11-20T01:35:06.076Z,86.68
2022-11-20T01:35:16.157Z,86.68
2022-11-20T01:35:26.294Z,86.68
2022-11-20T01:35:36.366Z,86.68
2022-11-20T01:35:46.457Z,86.68
2022-11-20T01:35:56.578Z,86.68
2022-11-20T01:36:06.634Z,86.68
2022-11-20T01:36:16.706Z,86.68
2022-11-20T01:36:26.775Z,86.68
2022-11-20T01:36:36.847Z,86.68
2022-11-20T01:36:46.905Z,86.68
2022-11-20T01:36:57.030Z,86.68
2022-11-20T01:37:07.092Z,86.68
2022-11-20T01:37:17.166Z,86.68
2022-11-20T01:37:27.238Z,86.68
2022-11-20T01:37:37.326Z,86.68
2022-11-20T01:37:47.394Z,86.68
2022-11-20T01:37:57.478Z,86.68
2022-11-20T01:38:07.535Z,86.68
2022-11-20T01:38:17.632Z,86.58
2022-11-20T01:38:27.709Z,86.58
2022-11-20T01:38:37.775Z,86.58
2022-11-20T01:38:47.867Z,86.58
2022-11-20T01:38:57.935Z,86.58
2022-11-20T01:39:08.029Z,86.58
2022-11-20T01:39:18.234Z,86.58
2022-11-20T01:39:28.194Z,86.58
2022-11-20T01:39:38.255Z,86.58
2022-11-20T01:39:48.335Z,86.58
2022-11-20T01:39:58.417Z,86.68
2022-11-20T01:40:08.386Z,86.58
2022-11-20T01:40:18.465Z,86.58
2022-11-20T01:40:28.525Z,86.58
2022-11-20T01:40:38.583Z,86.58
2022-11-20T01:40:48.646Z,86.58
2022-11-20T01:40:58.715Z,86.58
2022-11-20T01:41:08.785Z,86.58
2022-11-20T01:41:18.856Z,86.58
2022-11-20T01:41:28.925Z,86.58
2022-11-20T01:41:38.975Z,86.58
2022-11-20T01:41:49.069Z,86.58
2022-11-20T01:41:59.128Z,86.58
2022-11-20T01:42:10.329Z,86.58
2022-11-20T01:42:19.285Z,86.58
2022-11-20T01:42:29.418Z,86.58
2022-11-20T01:42:39.356Z,86.58
2022-11-20T01:42:49.425Z,86.47
2022-11-20T01:42:59.515Z,86.47
2022-11-20T01:43:09.564Z,86.47
2022-11-20T01:43:19.639Z,86.47
2022-11-20T01:43:29.684Z,86.47
2022-11-20T01:43:39.755Z,86.47
2022-11-20T01:43:49.829Z,86.58
2022-11-20T01:43:59.884Z,86.58
2022-11-20T01:44:09.953Z,86.58
2022-11-20T01:44:20.020Z,86.58
2022-11-20T01:44:30.094Z,86.58
2022-11-20T01:44:40.153Z,86.58
2022-11-20T01:44:50.223Z,86.58
2022-11-20T01:45:00.317Z,86.58
2022-11-20T01:45:10.378Z,86.58
2022-11-20T01:45:20.446Z,86.58
2022-11-20T01:45:30.504Z,86.47
2022-11-20T01:45:40.604Z,86.58
2022-11-20T01:45:50.654Z,86.58
2022-11-20T01:46:00.742Z,86.58
2022-11-20T01:46:10.796Z,86.58
2022-11-20T01:46:20.853Z,86.47
2022-11-20T01:46:30.915Z,86.47
2022-11-20T01:46:40.985Z,86.58
2022-11-20T01:46:51.045Z,86.58
2022-11-20T01:47:01.115Z,86.58
2022-11-20T01:47:11.186Z,86.58
2022-11-20T01:47:21.242Z,86.58
2022-11-20T01:47:31.318Z,86.47
2022-11-20T01:47:41.375Z,86.47
2022-11-20T01:47:51.438Z,86.47
2022-11-20T01:48:01.507Z,86.47
2022-11-20T01:48:11.576Z,86.47
2022-11-20T01:48:21.656Z,86.47
2022-11-20T01:48:31.728Z,86.47
2022-11-20T01:48:41.794Z,86.47
2022-11-20T01:48:51.864Z,86.47
2022-11-20T01:49:01.934Z,86.47
2022-11-20T01:49:12.011Z,86.47
2022-11-20T01:49:22.224Z,86.47
2022-11-20T01:49:32.092Z,86.47
2022-11-20T01:49:42.175Z,86.58
2022-11-20T01:49:52.233Z,86.47
2022-11-20T01:50:02.303Z,86.47
2022-11-20T01:50:12.375Z,86.47
2022-11-20T01:50:22.431Z,86.47
2022-11-20T01:50:32.502Z,86.47
2022-11-20T01:50:42.553Z,86.47
2022-11-20T01:50:52.617Z,86.47
2022-11-20T01:51:02.691Z,86.47
2022-11-20T01:51:12.758Z,86.47
2022-11-20T01:51:22.823Z,86.47
2022-11-20T01:51:32.803Z,86.47
2022-11-20T01:51:42.880Z,86.47
2022-11-20T01:51:52.933Z,86.47
2022-11-20T01:52:02.993Z,86.47
2022-11-20T01:52:13.057Z,86.47
2022-11-20T01:52:23.121Z,86.47
2022-11-20T01:52:33.192Z,86.47
2022-11-20T01:52:43.283Z,86.47
2022-11-20T01:52:53.361Z,86.47
2022-11-20T01:53:03.414Z,86.47
2022-11-20T01:53:13.483Z,86.47
2022-11-20T01:53:23.553Z,86.47
2022-11-20T01:53:33.631Z,86.47
2022-11-20T01:53:43.703Z,86.47
2022-11-20T01:53:53.894Z,86.47
2022-11-20T01:54:03.809Z,86.47
2022-11-20T01:54:13.873Z,86.37
2022-11-20T01:54:24.052Z,86.37
2022-11-20T01:54:33.965Z,86.37
2022-11-20T01:54:44.011Z,86.37
2022-11-20T01:54:54.093Z,86.37
2022-11-20T01:55:04.163Z,86.37
2022-11-20T01:55:14.240Z,86.27
2022-11-20T01:55:24.312Z,86.27
2022-11-20T01:55:34.392Z,86.27
2022-11-20T01:55:44.472Z,86.27
2022-11-20T01:55:54.532Z,86.27
2022-11-20T01:56:04.592Z,86.27
2022-11-20T01:56:14.660Z,86.27
2022-11-20T01:56:24.746Z,86.16
2022-11-20T01:56:34.803Z,86.16
2022-11-20T01:56:44.904Z,86.16
2022-11-20T01:56:54.951Z,86.16
2022-11-20T01:57:05.023Z,86.16
2022-11-20T01:57:15.092Z,86.16
2022-11-20T01:57:25.151Z,86.16
2022-11-20T01:57:35.210Z,86.16
2022-11-20T01:57:45.265Z,86.16
2022-11-20T01:57:55.312Z,86.16
2022-11-20T01:58:05.383Z,86.16
2022-11-20T01:58:15.442Z,86.16
2022-11-20T01:58:25.522Z,86.20
2022-11-20T01:58:35.572Z,86.16
2022-11-20T01:58:45.641Z,86.16
2022-11-20T01:58:55.702Z,86.16
2022-11-20T01:59:05.755Z,86.20
2022-11-20T01:59:15.830Z,86.20
2022-11-20T01:59:25.893Z,86.20
2022-11-20T01:59:35.942Z,86.16
2022-11-20T01:59:46.003Z,86.20
2022-11-20T01:59:56.061Z,86.16
2022-11-20T02:00:06.131Z,86.16
2022-11-20T02:00:16.182Z,86.20
2022-11-20T02:00:26.251Z,86.20
2022-11-20T02:00:36.333Z,86.16
2022-11-20T02:00:46.411Z,86.20
2022-11-20T02:00:56.496Z,86.10
2022-11-20T02:01:06.594Z,86.10
2022-11-20T02:01:16.673Z,86.10
2022-11-20T02:01:26.784Z,86.10
2022-11-20T02:01:36.950Z,86.10
2022-11-20T02:01:46.938Z,86.10
2022-11-20T02:01:56.822Z,86.10
2022-11-20T02:02:06.878Z,86.10
2022-11-20T02:02:16.941Z,86.10
2022-11-20T02:02:26.999Z,86.10
2022-11-20T02:02:37.071Z,86.10
2022-11-20T02:02:47.134Z,86.10
2022-11-20T02:02:57.191Z,86.10
2022-11-20T02:03:07.251Z,85.99
2022-11-20T02:03:17.303Z,85.99
2022-11-20T02:03:27.371Z,85.99
2022-11-20T02:03:37.433Z,85.89
2022-11-20T02:03:47.503Z,85.89
2022-11-20T02:03:57.591Z,85.89
2022-11-20T02:04:07.672Z,85.89
2022-11-20T02:04:17.760Z,85.89
2022-11-20T02:04:27.843Z,85.89
2022-11-20T02:04:37.903Z,85.89
2022-11-20T02:04:47.999Z,85.89
2022-11-20T02:04:58.078Z,85.89
2022-11-20T02:05:08.170Z,85.89
2022-11-20T02:05:18.241Z,85.89
2022-11-20T02:05:28.305Z,85.78
2022-11-20T02:05:38.380Z,85.78
2022-11-20T02:05:48.470Z,85.78
2022-11-20T02:05:58.554Z,85.78
2022-11-20T02:06:08.611Z,85.78
2022-11-20T02:06:18.711Z,85.78
2022-11-20T02:06:28.780Z,85.78
2022-11-20T02:06:38.893Z,85.68
2022-11-20T02:06:48.961Z,85.68
2022-11-20T02:06:59.106Z,85.68
2022-11-20T02:07:09.206Z,85.68
2022-11-20T02:07:19.323Z,85.68
2022-11-20T02:07:29.304Z,85.68
2022-11-20T02:07:39.444Z,85.68
2022-11-20T02:07:49.521Z,85.68
2022-11-20T02:07:59.597Z,85.68
2022-11-20T02:08:09.673Z,85.68
2022-11-20T02:08:19.813Z,85.68
2022-11-20T02:08:29.870Z,85.68
2022-11-20T02:08:39.943Z,85.68
2022-11-20T02:08:50.001Z,85.68
2022-11-20T02:09:00.088Z,85.68
2022-11-20T02:09:10.141Z,85.68
2022-11-20T02:09:20.462Z,85.68
2022-11-20T02:09:30.217Z,85.68
2022-11-20T02:09:41.482Z,85.68
2022-11-20T02:09:54.848Z,85.68